sensor_id;sensor_type;location;lat;lon;timestamp;temperature;humidity
18218;DHT22;9234;49.344;11.120;2023-04-25T00:02:14;9.40;99.90
18218;DHT22;9234;49.344;11.120;2023-04-25T00:04:42;9.40;99.90
18218;DHT22;9234;49.344;11.120;2023-04-25T00:07:11;9.40;99.90
18218;DHT22;9234;49.344;11.120;2023-04-25T00:09:42;9.40;99.90
18218;DHT22;9234;49.344;11.120;2023-04-25T00:12:10;9.40;99.90
18218;DHT22;9234;49.344;11.120;2023-04-25T00:14:39;9.30;99.90
18218;DHT22;9234;49.344;11.120;2023-04-25T00:17:08;9.30;99.90
18218;DHT22;9234;49.344;11.120;2023-04-25T00:19:36;9.30;99.90
18218;DHT22;9234;49.344;11.120;2023-04-25T00:22:04;9.30;99.90
18218;DHT22;9234;49.344;11.120;2023-04-25T00:24:32;9.40;99.90
18218;DHT22;9234;49.344;11.120;2023-04-25T00:27:01;9.30;99.90
18218;DHT22;9234;49.344;11.120;2023-04-25T00:29:29;9.30;99.90
18218;DHT22;9234;49.344;11.120;2023-04-25T00:31:59;9.30;99.90
18218;DHT22;9234;49.344;11.120;2023-04-25T00:34:27;9.30;99.90
18218;DHT22;9234;49.344;11.120;2023-04-25T00:36:55;9.30;99.90
18218;DHT22;9234;49.344;11.120;2023-04-25T00:39:24;9.30;99.90
18218;DHT22;9234;49.344;11.120;2023-04-25T00:41:53;9.30;99.90
18218;DHT22;9234;49.344;11.120;2023-04-25T00:44:22;9.30;99.90
18218;DHT22;9234;49.344;11.120;2023-04-25T00:46:53;9.30;99.90
18218;DHT22;9234;49.344;11.120;2023-04-25T00:49:23;9.30;99.90
18218;DHT22;9234;49.344;11.120;2023-04-25T00:51:51;9.30;99.90
18218;DHT22;9234;49.344;11.120;2023-04-25T00:54:20;9.40;99.90
18218;DHT22;9234;49.344;11.120;2023-04-25T00:56:48;9.30;99.90
18218;DHT22;9234;49.344;11.120;2023-04-25T00:59:17;9.30;99.90
18218;DHT22;9234;49.344;11.120;2023-04-25T01:01:46;9.30;99.90
18218;DHT22;9234;49.344;11.120;2023-04-25T01:04:15;9.30;99.90
18218;DHT22;9234;49.344;11.120;2023-04-25T01:06:45;9.30;99.90
18218;DHT22;9234;49.344;11.120;2023-04-25T01:09:14;9.30;99.90
18218;DHT22;9234;49.344;11.120;2023-04-25T01:11:44;9.30;99.90
18218;DHT22;9234;49.344;11.120;2023-04-25T01:14:12;9.20;99.90
18218;DHT22;9234;49.344;11.120;2023-04-25T01:16:40;9.20;99.90
18218;DHT22;9234;49.344;11.120;2023-04-25T01:19:10;9.10;99.90
18218;DHT22;9234;49.344;11.120;2023-04-25T01:21:40;9.10;99.90
18218;DHT22;9234;49.344;11.120;2023-04-25T01:24:08;9.00;99.90
18218;DHT22;9234;49.344;11.120;2023-04-25T01:26:37;9.00;99.90
18218;DHT22;9234;49.344;11.120;2023-04-25T01:29:07;9.00;99.90
18218;DHT22;9234;49.344;11.120;2023-04-25T01:31:36;9.00;99.90
18218;DHT22;9234;49.344;11.120;2023-04-25T01:34:05;8.90;99.90
18218;DHT22;9234;49.344;11.120;2023-04-25T01:36:33;8.90;99.90
18218;DHT22;9234;49.344;11.120;2023-04-25T01:39:03;8.90;99.90
18218;DHT22;9234;49.344;11.120;2023-04-25T01:41:33;8.90;99.90
18218;DHT22;9234;49.344;11.120;2023-04-25T01:44:02;8.90;99.90
18218;DHT22;9234;49.344;11.120;2023-04-25T01:46:31;8.80;99.90
18218;DHT22;9234;49.344;11.120;2023-04-25T01:49:00;8.80;99.90
18218;DHT22;9234;49.344;11.120;2023-04-25T01:51:30;8.80;99.90
18218;DHT22;9234;49.344;11.120;2023-04-25T01:53:58;8.80;99.90
18218;DHT22;9234;49.344;11.120;2023-04-25T01:56:31;8.80;99.90
18218;DHT22;9234;49.344;11.120;2023-04-25T01:59:00;8.80;99.90
18218;DHT22;9234;49.344;11.120;2023-04-25T02:01:51;8.80;99.90
18218;DHT22;9234;49.344;11.120;2023-04-25T02:04:25;8.80;99.90
18218;DHT22;9234;49.344;11.120;2023-04-25T02:06:54;8.80;99.90
18218;DHT22;9234;49.344;11.120;2023-04-25T02:09:28;8.80;99.90
18218;DHT22;9234;49.344;11.120;2023-04-25T02:11:58;8.80;99.90
18218;DHT22;9234;49.344;11.120;2023-04-25T02:14:34;8.80;99.90
18218;DHT22;9234;49.344;11.120;2023-04-25T02:17:12;8.80;99.90
18218;DHT22;9234;49.344;11.120;2023-04-25T02:19:40;8.80;99.90
18218;DHT22;9234;49.344;11.120;2023-04-25T02:22:09;8.80;99.90
18218;DHT22;9234;49.344;11.120;2023-04-25T02:24:38;8.80;99.90
18218;DHT22;9234;49.344;11.120;2023-04-25T02:27:08;8.80;99.90
18218;DHT22;9234;49.344;11.120;2023-04-25T02:29:36;8.80;99.90
18218;DHT22;9234;49.344;11.120;2023-04-25T02:32:04;8.80;99.90
18218;DHT22;9234;49.344;11.120;2023-04-25T02:34:33;8.80;99.90
18218;DHT22;9234;49.344;11.120;2023-04-25T02:37:01;8.80;99.90
18218;DHT22;9234;49.344;11.120;2023-04-25T02:39:29;8.80;99.90
18218;DHT22;9234;49.344;11.120;2023-04-25T02:41:57;8.80;99.90
18218;DHT22;9234;49.344;11.120;2023-04-25T02:44:30;8.70;99.90
18218;DHT22;9234;49.344;11.120;2023-04-25T02:46:58;8.70;99.90
18218;DHT22;9234;49.344;11.120;2023-04-25T02:49:26;8.70;99.90
18218;DHT22;9234;49.344;11.120;2023-04-25T02:51:54;8.70;99.90
18218;DHT22;9234;49.344;11.120;2023-04-25T02:54:23;8.70;99.90
18218;DHT22;9234;49.344;11.120;2023-04-25T02:56:51;8.70;99.90
18218;DHT22;9234;49.344;11.120;2023-04-25T02:59:25;8.70;99.90
18218;DHT22;9234;49.344;11.120;2023-04-25T03:01:55;8.60;99.90
18218;DHT22;9234;49.344;11.120;2023-04-25T03:04:23;8.60;99.90
18218;DHT22;9234;49.344;11.120;2023-04-25T03:06:52;8.60;99.90
18218;DHT22;9234;49.344;11.120;2023-04-25T03:09:21;8.60;99.90
18218;DHT22;9234;49.344;11.120;2023-04-25T03:11:51;8.60;99.90
18218;DHT22;9234;49.344;11.120;2023-04-25T03:14:20;8.50;99.90
18218;DHT22;9234;49.344;11.120;2023-04-25T03:16:48;8.50;99.90
18218;DHT22;9234;49.344;11.120;2023-04-25T03:19:18;8.50;99.90
18218;DHT22;9234;49.344;11.120;2023-04-25T03:21:47;8.50;99.90
18218;DHT22;9234;49.344;11.120;2023-04-25T03:24:17;8.50;99.90
18218;DHT22;9234;49.344;11.120;2023-04-25T03:26:45;8.50;99.90
18218;DHT22;9234;49.344;11.120;2023-04-25T03:29:13;8.40;99.90
18218;DHT22;9234;49.344;11.120;2023-04-25T03:31:43;8.40;99.90
18218;DHT22;9234;49.344;11.120;2023-04-25T03:34:11;8.40;99.90
18218;DHT22;9234;49.344;11.120;2023-04-25T03:36:42;8.40;99.90
18218;DHT22;9234;49.344;11.120;2023-04-25T03:39:11;8.30;99.90
18218;DHT22;9234;49.344;11.120;2023-04-25T03:41:44;8.30;99.90
18218;DHT22;9234;49.344;11.120;2023-04-25T03:44:14;8.30;99.90
18218;DHT22;9234;49.344;11.120;2023-04-25T03:46:42;8.30;99.90
18218;DHT22;9234;49.344;11.120;2023-04-25T03:49:11;8.30;99.90
18218;DHT22;9234;49.344;11.120;2023-04-25T03:51:57;8.20;99.90
18218;DHT22;9234;49.344;11.120;2023-04-25T03:54:25;8.20;99.90
18218;DHT22;9234;49.344;11.120;2023-04-25T03:57:05;8.20;99.90
18218;DHT22;9234;49.344;11.120;2023-04-25T03:59:37;8.20;99.90
18218;DHT22;9234;49.344;11.120;2023-04-25T04:02:08;8.20;99.90
18218;DHT22;9234;49.344;11.120;2023-04-25T04:04:36;8.20;99.90
18218;DHT22;9234;49.344;11.120;2023-04-25T04:07:08;8.10;99.90
18218;DHT22;9234;49.344;11.120;2023-04-25T04:09:40;8.10;99.90
18218;DHT22;9234;49.344;11.120;2023-04-25T04:12:14;8.10;99.90
18218;DHT22;9234;49.344;11.120;2023-04-25T04:14:42;8.10;99.90
18218;DHT22;9234;49.344;11.120;2023-04-25T04:17:11;8.00;99.90
18218;DHT22;9234;49.344;11.120;2023-04-25T04:19:39;8.00;99.90
18218;DHT22;9234;49.344;11.120;2023-04-25T04:22:19;8.00;99.90
18218;DHT22;9234;49.344;11.120;2023-04-25T04:24:47;8.00;99.90
18218;DHT22;9234;49.344;11.120;2023-04-25T04:27:21;8.00;99.90
18218;DHT22;9234;49.344;11.120;2023-04-25T04:30:12;8.00;99.90
18218;DHT22;9234;49.344;11.120;2023-04-25T04:32:55;8.10;99.90
18218;DHT22;9234;49.344;11.120;2023-04-25T04:35:24;8.10;99.90
18218;DHT22;9234;49.344;11.120;2023-04-25T04:37:54;8.10;99.90
18218;DHT22;9234;49.344;11.120;2023-04-25T04:40:25;8.10;99.90
18218;DHT22;9234;49.344;11.120;2023-04-25T04:43:04;8.10;99.90
18218;DHT22;9234;49.344;11.120;2023-04-25T04:45:52;8.20;99.90
18218;DHT22;9234;49.344;11.120;2023-04-25T04:48:40;8.20;99.90
18218;DHT22;9234;49.344;11.120;2023-04-25T04:51:36;8.20;99.90
18218;DHT22;9234;49.344;11.120;2023-04-25T04:54:16;8.30;99.90
18218;DHT22;9234;49.344;11.120;2023-04-25T04:57:20;8.30;99.90
18218;DHT22;9234;49.344;11.120;2023-04-25T05:00:08;8.40;99.90
18218;DHT22;9234;49.344;11.120;2023-04-25T05:02:40;8.40;99.90
18218;DHT22;9234;49.344;11.120;2023-04-25T05:05:14;8.40;99.90
18218;DHT22;9234;49.344;11.120;2023-04-25T05:07:58;8.40;99.90
18218;DHT22;9234;49.344;11.120;2023-04-25T05:10:46;8.50;99.90
18218;DHT22;9234;49.344;11.120;2023-04-25T05:13:33;8.50;99.90
18218;DHT22;9234;49.344;11.120;2023-04-25T05:16:20;8.50;99.90
18218;DHT22;9234;49.344;11.120;2023-04-25T05:18:55;8.50;99.90
18218;DHT22;9234;49.344;11.120;2023-04-25T05:21:32;8.60;99.90
18218;DHT22;9234;49.344;11.120;2023-04-25T05:24:09;8.60;99.90
18218;DHT22;9234;49.344;11.120;2023-04-25T05:26:50;8.60;99.90
18218;DHT22;9234;49.344;11.120;2023-04-25T05:29:34;8.60;99.90
18218;DHT22;9234;49.344;11.120;2023-04-25T05:32:25;8.70;99.90
18218;DHT22;9234;49.344;11.120;2023-04-25T05:34:54;8.80;99.90
18218;DHT22;9234;49.344;11.120;2023-04-25T05:37:26;8.80;99.90
18218;DHT22;9234;49.344;11.120;2023-04-25T05:39:58;8.80;99.90
18218;DHT22;9234;49.344;11.120;2023-04-25T05:42:50;8.80;99.90
18218;DHT22;9234;49.344;11.120;2023-04-25T05:45:27;8.90;99.90
18218;DHT22;9234;49.344;11.120;2023-04-25T05:48:05;8.90;99.90
18218;DHT22;9234;49.344;11.120;2023-04-25T05:50:56;8.90;99.90
18218;DHT22;9234;49.344;11.120;2023-04-25T05:53:44;8.90;99.90
18218;DHT22;9234;49.344;11.120;2023-04-25T05:56:14;8.90;99.90
18218;DHT22;9234;49.344;11.120;2023-04-25T05:58:43;8.90;99.90
18218;DHT22;9234;49.344;11.120;2023-04-25T06:01:12;8.90;99.90
18218;DHT22;9234;49.344;11.120;2023-04-25T06:03:40;8.90;99.90
18218;DHT22;9234;49.344;11.120;2023-04-25T06:06:11;9.00;99.90
18218;DHT22;9234;49.344;11.120;2023-04-25T06:08:40;9.10;99.90
18218;DHT22;9234;49.344;11.120;2023-04-25T06:11:10;9.10;99.90
18218;DHT22;9234;49.344;11.120;2023-04-25T06:13:39;9.10;99.90
18218;DHT22;9234;49.344;11.120;2023-04-25T06:16:08;9.20;99.90
18218;DHT22;9234;49.344;11.120;2023-04-25T06:18:37;9.30;99.90
18218;DHT22;9234;49.344;11.120;2023-04-25T06:21:06;9.30;99.90
18218;DHT22;9234;49.344;11.120;2023-04-25T06:23:34;9.40;99.90
18218;DHT22;9234;49.344;11.120;2023-04-25T06:26:05;9.40;99.90
18218;DHT22;9234;49.344;11.120;2023-04-25T06:28:37;9.50;99.90
18218;DHT22;9234;49.344;11.120;2023-04-25T06:31:05;9.60;99.90
18218;DHT22;9234;49.344;11.120;2023-04-25T06:33:35;9.60;99.90
18218;DHT22;9234;49.344;11.120;2023-04-25T06:36:04;9.60;99.90
18218;DHT22;9234;49.344;11.120;2023-04-25T06:38:33;9.60;99.90
18218;DHT22;9234;49.344;11.120;2023-04-25T06:41:02;9.60;99.90
18218;DHT22;9234;49.344;11.120;2023-04-25T06:43:33;9.60;99.90
18218;DHT22;9234;49.344;11.120;2023-04-25T06:46:15;9.60;99.90
18218;DHT22;9234;49.344;11.120;2023-04-25T06:48:47;9.60;99.90
18218;DHT22;9234;49.344;11.120;2023-04-25T06:51:18;9.60;99.90
18218;DHT22;9234;49.344;11.120;2023-04-25T06:53:52;9.70;99.90
18218;DHT22;9234;49.344;11.120;2023-04-25T06:56:37;9.70;99.90
18218;DHT22;9234;49.344;11.120;2023-04-25T06:59:10;9.70;99.90
18218;DHT22;9234;49.344;11.120;2023-04-25T07:01:40;9.70;99.90
18218;DHT22;9234;49.344;11.120;2023-04-25T07:04:17;9.70;99.90
18218;DHT22;9234;49.344;11.120;2023-04-25T07:06:50;9.60;99.90
18218;DHT22;9234;49.344;11.120;2023-04-25T07:09:23;9.60;99.90
18218;DHT22;9234;49.344;11.120;2023-04-25T07:11:51;9.50;99.90
18218;DHT22;9234;49.344;11.120;2023-04-25T07:14:20;9.50;99.90
18218;DHT22;9234;49.344;11.120;2023-04-25T07:16:48;9.50;99.90
18218;DHT22;9234;49.344;11.120;2023-04-25T07:19:18;9.50;99.90
18218;DHT22;9234;49.344;11.120;2023-04-25T07:21:46;9.50;99.90
18218;DHT22;9234;49.344;11.120;2023-04-25T07:24:15;9.50;99.90
18218;DHT22;9234;49.344;11.120;2023-04-25T07:26:45;9.60;99.90
18218;DHT22;9234;49.344;11.120;2023-04-25T07:29:24;9.60;99.90
18218;DHT22;9234;49.344;11.120;2023-04-25T07:31:52;9.60;99.90
18218;DHT22;9234;49.344;11.120;2023-04-25T07:34:23;9.50;99.90
18218;DHT22;9234;49.344;11.120;2023-04-25T07:36:51;9.50;99.90
18218;DHT22;9234;49.344;11.120;2023-04-25T07:39:21;9.50;99.90
18218;DHT22;9234;49.344;11.120;2023-04-25T07:41:50;9.50;99.90
18218;DHT22;9234;49.344;11.120;2023-04-25T07:44:24;9.40;99.90
18218;DHT22;9234;49.344;11.120;2023-04-25T07:46:53;9.40;99.90
18218;DHT22;9234;49.344;11.120;2023-04-25T07:49:22;9.40;99.90
18218;DHT22;9234;49.344;11.120;2023-04-25T07:51:51;9.50;99.90
18218;DHT22;9234;49.344;11.120;2023-04-25T07:54:20;9.40;99.90
18218;DHT22;9234;49.344;11.120;2023-04-25T07:56:56;9.30;99.90
18218;DHT22;9234;49.344;11.120;2023-04-25T07:59:28;9.20;99.90
18218;DHT22;9234;49.344;11.120;2023-04-25T08:02:00;9.20;99.90
18218;DHT22;9234;49.344;11.120;2023-04-25T08:04:30;9.20;99.90
18218;DHT22;9234;49.344;11.120;2023-04-25T08:07:02;9.20;99.90
18218;DHT22;9234;49.344;11.120;2023-04-25T08:09:38;9.10;99.90
18218;DHT22;9234;49.344;11.120;2023-04-25T08:12:12;9.00;99.90
18218;DHT22;9234;49.344;11.120;2023-04-25T08:14:41;8.90;99.90
18218;DHT22;9234;49.344;11.120;2023-04-25T08:17:10;8.90;99.90
18218;DHT22;9234;49.344;11.120;2023-04-25T08:19:42;8.90;99.90
18218;DHT22;9234;49.344;11.120;2023-04-25T08:22:18;9.00;99.90
18218;DHT22;9234;49.344;11.120;2023-04-25T08:24:53;8.90;99.90
18218;DHT22;9234;49.344;11.120;2023-04-25T08:27:21;8.90;99.90
18218;DHT22;9234;49.344;11.120;2023-04-25T08:29:50;8.90;99.90
18218;DHT22;9234;49.344;11.120;2023-04-25T08:32:19;8.90;99.90
18218;DHT22;9234;49.344;11.120;2023-04-25T08:35:09;8.90;99.90
18218;DHT22;9234;49.344;11.120;2023-04-25T08:37:38;9.00;99.90
18218;DHT22;9234;49.344;11.120;2023-04-25T08:40:15;9.10;99.90
18218;DHT22;9234;49.344;11.120;2023-04-25T08:42:56;9.20;99.90
18218;DHT22;9234;49.344;11.120;2023-04-25T08:45:26;9.30;99.90
18218;DHT22;9234;49.344;11.120;2023-04-25T08:47:57;9.30;99.90
18218;DHT22;9234;49.344;11.120;2023-04-25T08:50:28;9.40;99.90
18218;DHT22;9234;49.344;11.120;2023-04-25T08:52:59;9.50;99.90
18218;DHT22;9234;49.344;11.120;2023-04-25T08:55:32;9.60;99.90
18218;DHT22;9234;49.344;11.120;2023-04-25T08:58:02;9.70;99.90
18218;DHT22;9234;49.344;11.120;2023-04-25T09:00:30;9.80;99.90
18218;DHT22;9234;49.344;11.120;2023-04-25T09:02:59;10.00;99.90
18218;DHT22;9234;49.344;11.120;2023-04-25T09:05:32;10.30;99.90
18218;DHT22;9234;49.344;11.120;2023-04-25T09:08:02;10.50;99.90
18218;DHT22;9234;49.344;11.120;2023-04-25T09:10:30;10.60;99.90
18218;DHT22;9234;49.344;11.120;2023-04-25T09:13:03;10.60;99.90
18218;DHT22;9234;49.344;11.120;2023-04-25T09:15:47;10.70;99.90
18218;DHT22;9234;49.344;11.120;2023-04-25T09:18:35;10.70;99.90
18218;DHT22;9234;49.344;11.120;2023-04-25T09:21:07;10.80;99.90
18218;DHT22;9234;49.344;11.120;2023-04-25T09:23:45;10.90;99.90
18218;DHT22;9234;49.344;11.120;2023-04-25T09:26:15;11.00;99.90
18218;DHT22;9234;49.344;11.120;2023-04-25T09:28:45;11.30;99.90
18218;DHT22;9234;49.344;11.120;2023-04-25T09:31:22;11.50;99.90
18218;DHT22;9234;49.344;11.120;2023-04-25T09:33:59;11.60;99.90
18218;DHT22;9234;49.344;11.120;2023-04-25T09:36:40;11.70;99.90
18218;DHT22;9234;49.344;11.120;2023-04-25T09:39:20;11.70;99.90
18218;DHT22;9234;49.344;11.120;2023-04-25T09:42:00;11.70;99.90
18218;DHT22;9234;49.344;11.120;2023-04-25T09:44:31;11.70;99.90
18218;DHT22;9234;49.344;11.120;2023-04-25T09:46:59;11.60;99.90
18218;DHT22;9234;49.344;11.120;2023-04-25T09:49:31;11.60;99.90
18218;DHT22;9234;49.344;11.120;2023-04-25T09:52:05;11.70;99.90
18218;DHT22;9234;49.344;11.120;2023-04-25T09:54:40;12.10;99.90
18218;DHT22;9234;49.344;11.120;2023-04-25T09:57:15;12.40;99.90
18218;DHT22;9234;49.344;11.120;2023-04-25T09:59:46;12.70;99.90
18218;DHT22;9234;49.344;11.120;2023-04-25T10:02:17;13.10;99.90
18218;DHT22;9234;49.344;11.120;2023-04-25T10:04:51;13.30;99.90
18218;DHT22;9234;49.344;11.120;2023-04-25T10:07:36;13.60;99.90
18218;DHT22;9234;49.344;11.120;2023-04-25T10:10:13;13.70;99.90
18218;DHT22;9234;49.344;11.120;2023-04-25T10:12:42;13.60;99.90
18218;DHT22;9234;49.344;11.120;2023-04-25T10:15:11;13.30;99.90
18218;DHT22;9234;49.344;11.120;2023-04-25T10:17:41;13.10;99.90
18218;DHT22;9234;49.344;11.120;2023-04-25T10:20:11;12.90;99.90
18218;DHT22;9234;49.344;11.120;2023-04-25T10:22:44;12.60;99.90
18218;DHT22;9234;49.344;11.120;2023-04-25T10:25:14;12.40;99.90
18218;DHT22;9234;49.344;11.120;2023-04-25T10:27:43;12.20;99.90
18218;DHT22;9234;49.344;11.120;2023-04-25T10:30:14;12.10;99.90
18218;DHT22;9234;49.344;11.120;2023-04-25T10:32:43;12.10;99.90
18218;DHT22;9234;49.344;11.120;2023-04-25T10:35:15;12.20;99.90
18218;DHT22;9234;49.344;11.120;2023-04-25T10:38:02;12.50;99.90
18218;DHT22;9234;49.344;11.120;2023-04-25T10:40:32;12.80;99.90
18218;DHT22;9234;49.344;11.120;2023-04-25T10:43:34;13.10;99.90
18218;DHT22;9234;49.344;11.120;2023-04-25T10:46:16;13.60;99.90
18218;DHT22;9234;49.344;11.120;2023-04-25T10:48:47;13.60;99.70
18218;DHT22;9234;49.344;11.120;2023-04-25T10:51:19;13.50;99.40
18218;DHT22;9234;49.344;11.120;2023-04-25T10:53:59;13.40;99.30
18218;DHT22;9234;49.344;11.120;2023-04-25T10:56:29;13.20;99.20
18218;DHT22;9234;49.344;11.120;2023-04-25T10:59:06;13.20;99.60
18218;DHT22;9234;49.344;11.120;2023-04-25T11:01:38;13.20;99.70
18218;DHT22;9234;49.344;11.120;2023-04-25T11:04:20;13.30;99.90
18218;DHT22;9234;49.344;11.120;2023-04-25T11:07:07;13.20;97.90
18218;DHT22;9234;49.344;11.120;2023-04-25T11:09:42;13.20;98.40
18218;DHT22;9234;49.344;11.120;2023-04-25T11:12:13;13.10;98.60
18218;DHT22;9234;49.344;11.120;2023-04-25T11:14:41;13.00;98.90
18218;DHT22;9234;49.344;11.120;2023-04-25T11:17:10;13.10;99.60
18218;DHT22;9234;49.344;11.120;2023-04-25T11:19:38;13.30;98.70
18218;DHT22;9234;49.344;11.120;2023-04-25T11:22:10;13.50;97.20
18218;DHT22;9234;49.344;11.120;2023-04-25T11:24:39;13.60;96.40
18218;DHT22;9234;49.344;11.120;2023-04-25T11:27:09;13.70;96.60
18218;DHT22;9234;49.344;11.120;2023-04-25T11:29:38;13.80;96.50
18218;DHT22;9234;49.344;11.120;2023-04-25T11:32:06;13.80;97.00
18218;DHT22;9234;49.344;11.120;2023-04-25T11:34:35;13.90;96.20
18218;DHT22;9234;49.344;11.120;2023-04-25T11:37:03;14.10;96.20
18218;DHT22;9234;49.344;11.120;2023-04-25T11:39:32;14.40;94.70
18218;DHT22;9234;49.344;11.120;2023-04-25T11:42:01;14.70;93.30
18218;DHT22;9234;49.344;11.120;2023-04-25T11:44:40;14.90;92.30
18218;DHT22;9234;49.344;11.120;2023-04-25T11:47:09;15.00;91.40
18218;DHT22;9234;49.344;11.120;2023-04-25T11:49:37;15.00;92.00
18218;DHT22;9234;49.344;11.120;2023-04-25T11:52:06;15.00;91.50
18218;DHT22;9234;49.344;11.120;2023-04-25T11:54:36;15.00;92.40
18218;DHT22;9234;49.344;11.120;2023-04-25T11:57:04;14.90;91.20
18218;DHT22;9234;49.344;11.120;2023-04-25T11:59:33;14.80;91.50
18218;DHT22;9234;49.344;11.120;2023-04-25T12:02:03;14.70;90.80
18218;DHT22;9234;49.344;11.120;2023-04-25T12:04:33;14.60;91.40
18218;DHT22;9234;49.344;11.120;2023-04-25T12:07:02;14.40;89.70
18218;DHT22;9234;49.344;11.120;2023-04-25T12:09:32;14.20;90.30
18218;DHT22;9234;49.344;11.120;2023-04-25T12:12:01;14.10;90.20
18218;DHT22;9234;49.344;11.120;2023-04-25T12:14:31;14.00;88.60
18218;DHT22;9234;49.344;11.120;2023-04-25T12:17:03;14.00;89.30
18218;DHT22;9234;49.344;11.120;2023-04-25T12:19:35;14.20;88.50
18218;DHT22;9234;49.344;11.120;2023-04-25T12:22:19;14.30;88.60
18218;DHT22;9234;49.344;11.120;2023-04-25T12:24:48;14.40;87.70
18218;DHT22;9234;49.344;11.120;2023-04-25T12:27:17;14.50;88.50
18218;DHT22;9234;49.344;11.120;2023-04-25T12:29:53;14.60;84.70
18218;DHT22;9234;49.344;11.120;2023-04-25T12:32:24;14.70;86.20
18218;DHT22;9234;49.344;11.120;2023-04-25T12:34:53;14.80;85.70
18218;DHT22;9234;49.344;11.120;2023-04-25T12:37:21;15.10;86.20
18218;DHT22;9234;49.344;11.120;2023-04-25T12:39:49;15.30;85.70
18218;DHT22;9234;49.344;11.120;2023-04-25T12:42:18;15.50;83.90
18218;DHT22;9234;49.344;11.120;2023-04-25T12:44:46;15.40;81.50
18218;DHT22;9234;49.344;11.120;2023-04-25T12:47:14;15.40;82.20
18218;DHT22;9234;49.344;11.120;2023-04-25T12:49:44;15.20;79.90
18218;DHT22;9234;49.344;11.120;2023-04-25T12:52:12;15.10;82.40
18218;DHT22;9234;49.344;11.120;2023-04-25T12:54:40;15.20;84.10
18218;DHT22;9234;49.344;11.120;2023-04-25T12:57:08;15.50;84.30
18218;DHT22;9234;49.344;11.120;2023-04-25T12:59:38;15.90;84.00
18218;DHT22;9234;49.344;11.120;2023-04-25T13:02:06;16.30;81.60
18218;DHT22;9234;49.344;11.120;2023-04-25T13:04:34;16.40;79.60
18218;DHT22;9234;49.344;11.120;2023-04-25T13:07:04;16.30;79.10
18218;DHT22;9234;49.344;11.120;2023-04-25T13:09:32;16.00;78.90
18218;DHT22;9234;49.344;11.120;2023-04-25T13:12:01;15.60;81.10
18218;DHT22;9234;49.344;11.120;2023-04-25T13:14:29;15.20;81.20
18218;DHT22;9234;49.344;11.120;2023-04-25T13:16:57;14.90;82.60
18218;DHT22;9234;49.344;11.120;2023-04-25T13:19:26;14.80;84.60
18218;DHT22;9234;49.344;11.120;2023-04-25T13:21:54;14.60;83.80
18218;DHT22;9234;49.344;11.120;2023-04-25T13:24:24;14.50;85.30
18218;DHT22;9234;49.344;11.120;2023-04-25T13:26:52;14.20;83.80
18218;DHT22;9234;49.344;11.120;2023-04-25T13:29:20;14.10;85.00
18218;DHT22;9234;49.344;11.120;2023-04-25T13:31:49;14.00;86.20
18218;DHT22;9234;49.344;11.120;2023-04-25T13:34:17;14.00;87.30
18218;DHT22;9234;49.344;11.120;2023-04-25T13:36:45;14.00;87.10
18218;DHT22;9234;49.344;11.120;2023-04-25T13:39:13;13.90;86.30
18218;DHT22;9234;49.344;11.120;2023-04-25T13:41:43;14.00;86.50
18218;DHT22;9234;49.344;11.120;2023-04-25T13:44:11;14.10;86.10
18218;DHT22;9234;49.344;11.120;2023-04-25T13:46:39;14.10;86.20
18218;DHT22;9234;49.344;11.120;2023-04-25T13:49:13;14.00;86.20
18218;DHT22;9234;49.344;11.120;2023-04-25T13:51:42;13.90;87.80
18218;DHT22;9234;49.344;11.120;2023-04-25T13:54:10;13.90;86.50
18218;DHT22;9234;49.344;11.120;2023-04-25T13:56:38;13.90;85.80
18218;DHT22;9234;49.344;11.120;2023-04-25T13:59:10;13.90;86.90
18218;DHT22;9234;49.344;11.120;2023-04-25T14:01:38;13.80;86.60
18218;DHT22;9234;49.344;11.120;2023-04-25T14:04:07;13.80;86.50
18218;DHT22;9234;49.344;11.120;2023-04-25T14:06:36;13.80;86.60
18218;DHT22;9234;49.344;11.120;2023-04-25T14:09:04;13.60;86.30
18218;DHT22;9234;49.344;11.120;2023-04-25T14:11:33;13.60;86.70
18218;DHT22;9234;49.344;11.120;2023-04-25T14:14:02;13.50;87.50
18218;DHT22;9234;49.344;11.120;2023-04-25T14:16:33;13.30;88.20
18218;DHT22;9234;49.344;11.120;2023-04-25T14:19:02;13.10;89.70
18218;DHT22;9234;49.344;11.120;2023-04-25T14:21:30;13.00;90.00
18218;DHT22;9234;49.344;11.120;2023-04-25T14:24:00;12.90;90.00
18218;DHT22;9234;49.344;11.120;2023-04-25T14:26:28;12.80;91.10
18218;DHT22;9234;49.344;11.120;2023-04-25T14:28:56;12.80;92.00
18218;DHT22;9234;49.344;11.120;2023-04-25T14:31:25;12.80;92.30
18218;DHT22;9234;49.344;11.120;2023-04-25T14:33:55;12.70;91.30
18218;DHT22;9234;49.344;11.120;2023-04-25T14:36:25;12.70;91.40
18218;DHT22;9234;49.344;11.120;2023-04-25T14:38:54;12.70;91.70
18218;DHT22;9234;49.344;11.120;2023-04-25T14:41:22;12.70;91.40
18218;DHT22;9234;49.344;11.120;2023-04-25T14:43:51;12.70;91.50
18218;DHT22;9234;49.344;11.120;2023-04-25T14:46:20;12.60;91.30
18218;DHT22;9234;49.344;11.120;2023-04-25T14:48:50;12.60;91.60
18218;DHT22;9234;49.344;11.120;2023-04-25T14:51:20;12.60;91.60
18218;DHT22;9234;49.344;11.120;2023-04-25T14:53:48;12.50;91.80
18218;DHT22;9234;49.344;11.120;2023-04-25T14:56:17;12.40;91.60
18218;DHT22;9234;49.344;11.120;2023-04-25T14:58:45;12.30;91.80
18218;DHT22;9234;49.344;11.120;2023-04-25T15:01:14;12.20;92.20
18218;DHT22;9234;49.344;11.120;2023-04-25T15:03:42;12.10;92.30
18218;DHT22;9234;49.344;11.120;2023-04-25T15:06:11;12.00;92.70
18218;DHT22;9234;49.344;11.120;2023-04-25T15:08:40;11.90;93.10
18218;DHT22;9234;49.344;11.120;2023-04-25T15:11:09;11.80;93.40
18218;DHT22;9234;49.344;11.120;2023-04-25T15:13:38;11.80;93.70
18218;DHT22;9234;49.344;11.120;2023-04-25T15:16:07;11.90;93.70
18218;DHT22;9234;49.344;11.120;2023-04-25T15:18:35;11.90;93.50
18218;DHT22;9234;49.344;11.120;2023-04-25T15:21:03;12.00;93.50
18218;DHT22;9234;49.344;11.120;2023-04-25T15:23:32;12.00;93.70
18218;DHT22;9234;49.344;11.120;2023-04-25T15:26:01;12.10;94.00
18218;DHT22;9234;49.344;11.120;2023-04-25T15:28:30;12.30;94.20
18218;DHT22;9234;49.344;11.120;2023-04-25T15:31:00;12.40;93.50
18218;DHT22;9234;49.344;11.120;2023-04-25T15:33:28;12.50;93.30
18218;DHT22;9234;49.344;11.120;2023-04-25T15:35:57;12.60;93.30
18218;DHT22;9234;49.344;11.120;2023-04-25T15:38:25;12.80;92.60
18218;DHT22;9234;49.344;11.120;2023-04-25T15:40:53;12.90;92.30
18218;DHT22;9234;49.344;11.120;2023-04-25T15:43:23;13.00;90.90
18218;DHT22;9234;49.344;11.120;2023-04-25T15:45:52;13.00;91.20
18218;DHT22;9234;49.344;11.120;2023-04-25T15:48:20;13.20;91.50
18218;DHT22;9234;49.344;11.120;2023-04-25T15:50:48;13.40;90.90
18218;DHT22;9234;49.344;11.120;2023-04-25T15:53:17;13.50;90.70
18218;DHT22;9234;49.344;11.120;2023-04-25T15:55:45;13.50;90.60
18218;DHT22;9234;49.344;11.120;2023-04-25T15:58:13;13.80;91.70
18218;DHT22;9234;49.344;11.120;2023-04-25T16:00:44;14.50;91.20
18218;DHT22;9234;49.344;11.120;2023-04-25T16:03:14;15.60;91.50
18218;DHT22;9234;49.344;11.120;2023-04-25T16:05:43;16.50;84.50
18218;DHT22;9234;49.344;11.120;2023-04-25T16:08:12;16.90;80.00